sensor_id;sensor_type;location;lat;lon;timestamp;P1;durP1;ratioP1;P2;durP2;ratioP2
74347;SDS011;62778;50.406;10.008;2023-03-07T00:00:42;23.73;;;12.70;;
74347;SDS011;62778;50.406;10.008;2023-03-07T00:01:38;21.42;;;10.93;;
74347;SDS011;62778;50.406;10.008;2023-03-07T00:02:33;18.50;;;9.70;;
74347;SDS011;62778;50.406;10.008;2023-03-07T00:03:29;21.60;;;10.60;;
74347;SDS011;62778;50.406;10.008;2023-03-07T00:04:24;23.38;;;11.02;;
74347;SDS011;62778;50.406;10.008;2023-03-07T00:05:19;19.67;;;9.60;;
74347;SDS011;62778;50.406;10.008;2023-03-07T00:06:15;21.23;;;10.53;;
74347;SDS011;62778;50.406;10.008;2023-03-07T00:07:10;20.88;;;10.25;;
74347;SDS011;62778;50.406;10.008;2023-03-07T00:08:06;19.97;;;9.47;;
74347;SDS011;62778;50.406;10.008;2023-03-07T00:09:01;20.33;;;10.47;;
74347;SDS011;62778;50.406;10.008;2023-03-07T00:09:57;23.65;;;11.63;;
74347;SDS011;62778;50.406;10.008;2023-03-07T00:10:52;20.80;;;9.40;;
74347;SDS011;62778;50.406;10.008;2023-03-07T00:11:48;19.47;;;10.27;;
74347;SDS011;62778;50.406;10.008;2023-03-07T00:12:44;22.15;;;9.93;;
74347;SDS011;62778;50.406;10.008;2023-03-07T00:13:39;21.10;;;10.57;;
74347;SDS011;62778;50.406;10.008;2023-03-07T00:14:34;24.53;;;10.63;;
74347;SDS011;62778;50.406;10.008;2023-03-07T00:15:30;19.43;;;10.13;;
74347;SDS011;62778;50.406;10.008;2023-03-07T00:16:25;18.93;;;9.80;;
74347;SDS011;62778;50.406;10.008;2023-03-07T00:17:21;22.25;;;10.90;;
74347;SDS011;62778;50.406;10.008;2023-03-07T00:18:16;19.27;;;10.07;;
74347;SDS011;62778;50.406;10.008;2023-03-07T00:19:11;22.33;;;10.50;;
74347;SDS011;62778;50.406;10.008;2023-03-07T00:20:07;24.93;;;13.53;;
74347;SDS011;62778;50.406;10.008;2023-03-07T00:21:05;22.52;;;11.32;;
74347;SDS011;62778;50.406;10.008;2023-03-07T00:22:02;20.33;;;9.77;;
74347;SDS011;62778;50.406;10.008;2023-03-07T00:22:58;24.73;;;11.05;;
74347;SDS011;62778;50.406;10.008;2023-03-07T00:23:53;22.20;;;10.50;;
74347;SDS011;62778;50.406;10.008;2023-03-07T00:24:48;20.67;;;9.47;;
74347;SDS011;62778;50.406;10.008;2023-03-07T00:25:44;18.13;;;9.03;;
74347;SDS011;62778;50.406;10.008;2023-03-07T00:26:39;23.30;;;11.07;;
74347;SDS011;62778;50.406;10.008;2023-03-07T00:27:35;20.27;;;9.53;;
74347;SDS011;62778;50.406;10.008;2023-03-07T00:28:30;26.67;;;10.23;;
74347;SDS011;62778;50.406;10.008;2023-03-07T00:29:26;21.25;;;10.23;;
74347;SDS011;62778;50.406;10.008;2023-03-07T00:30:21;22.27;;;10.93;;
74347;SDS011;62778;50.406;10.008;2023-03-07T00:31:17;21.87;;;10.57;;
74347;SDS011;62778;50.406;10.008;2023-03-07T00:32:13;20.63;;;9.90;;
74347;SDS011;62778;50.406;10.008;2023-03-07T00:33:08;22.92;;;12.82;;
74347;SDS011;62778;50.406;10.008;2023-03-07T00:34:03;22.93;;;10.70;;
74347;SDS011;62778;50.406;10.008;2023-03-07T00:34:59;19.53;;;9.50;;
74347;SDS011;62778;50.406;10.008;2023-03-07T00:35:58;22.08;;;10.10;;
74347;SDS011;62778;50.406;10.008;2023-03-07T00:36:55;20.08;;;9.77;;
74347;SDS011;62778;50.406;10.008;2023-03-07T00:37:50;19.47;;;9.50;;
74347;SDS011;62778;50.406;10.008;2023-03-07T00:38:45;21.43;;;9.43;;
74347;SDS011;62778;50.406;10.008;2023-03-07T00:39:41;21.83;;;11.05;;
74347;SDS011;62778;50.406;10.008;2023-03-07T00:40:37;23.63;;;10.33;;
74347;SDS011;62778;50.406;10.008;2023-03-07T00:41:32;22.80;;;11.37;;
74347;SDS011;62778;50.406;10.008;2023-03-07T00:42:27;22.42;;;10.50;;
74347;SDS011;62778;50.406;10.008;2023-03-07T00:43:23;23.03;;;11.13;;
74347;SDS011;62778;50.406;10.008;2023-03-07T00:44:18;25.97;;;13.60;;
74347;SDS011;62778;50.406;10.008;2023-03-07T00:45:13;22.43;;;10.40;;
74347;SDS011;62778;50.406;10.008;2023-03-07T00:46:09;19.37;;;9.47;;
74347;SDS011;62778;50.406;10.008;2023-03-07T00:47:04;22.38;;;10.75;;
74347;SDS011;62778;50.406;10.008;2023-03-07T00:48:00;20.13;;;9.67;;
74347;SDS011;62778;50.406;10.008;2023-03-07T00:48:55;23.33;;;10.97;;
74347;SDS011;62778;50.406;10.008;2023-03-07T00:49:50;21.70;;;9.43;;
74347;SDS011;62778;50.406;10.008;2023-03-07T00:50:45;20.00;;;9.60;;
74347;SDS011;62778;50.406;10.008;2023-03-07T00:51:42;19.63;;;9.73;;
74347;SDS011;62778;50.406;10.008;2023-03-07T00:52:37;20.33;;;9.67;;
74347;SDS011;62778;50.406;10.008;2023-03-07T00:53:33;21.97;;;9.57;;
74347;SDS011;62778;50.406;10.008;2023-03-07T00:54:29;21.48;;;10.02;;
74347;SDS011;62778;50.406;10.008;2023-03-07T00:55:24;20.90;;;10.30;;
74347;SDS011;62778;50.406;10.008;2023-03-07T00:56:20;23.40;;;11.40;;
74347;SDS011;62778;50.406;10.008;2023-03-07T00:57:17;22.42;;;11.48;;
74347;SDS011;62778;50.406;10.008;2023-03-07T00:58:12;21.57;;;11.10;;
74347;SDS011;62778;50.406;10.008;2023-03-07T00:59:07;22.98;;;10.23;;
74347;SDS011;62778;50.406;10.008;2023-03-07T01:00:03;19.92;;;8.38;;
74347;SDS011;62778;50.406;10.008;2023-03-07T01:01:00;22.80;;;11.00;;
74347;SDS011;62778;50.406;10.008;2023-03-07T01:01:55;22.23;;;9.38;;
74347;SDS011;62778;50.406;10.008;2023-03-07T01:02:51;20.57;;;10.53;;
74347;SDS011;62778;50.406;10.008;2023-03-07T01:03:46;22.87;;;10.17;;
74347;SDS011;62778;50.406;10.008;2023-03-07T01:04:47;24.17;;;11.23;;
74347;SDS011;62778;50.406;10.008;2023-03-07T01:05:42;23.63;;;9.97;;
74347;SDS011;62778;50.406;10.008;2023-03-07T01:06:38;22.83;;;9.40;;
74347;SDS011;62778;50.406;10.008;2023-03-07T01:07:33;25.50;;;11.48;;
74347;SDS011;62778;50.406;10.008;2023-03-07T01:08:29;21.17;;;10.30;;
74347;SDS011;62778;50.406;10.008;2023-03-07T01:09:24;24.20;;;11.60;;
74347;SDS011;62778;50.406;10.008;2023-03-07T01:10:20;22.13;;;10.40;;
74347;SDS011;62778;50.406;10.008;2023-03-07T01:11:16;24.38;;;10.93;;
74347;SDS011;62778;50.406;10.008;2023-03-07T01:12:11;26.10;;;12.00;;
74347;SDS011;62778;50.406;10.008;2023-03-07T01:13:07;20.80;;;9.93;;
74347;SDS011;62778;50.406;10.008;2023-03-07T01:14:04;20.05;;;10.00;;
74347;SDS011;62778;50.406;10.008;2023-03-07T01:15:00;23.55;;;9.95;;
74347;SDS011;62778;50.406;10.008;2023-03-07T01:16:16;21.58;;;10.43;;
74347;SDS011;62778;50.406;10.008;2023-03-07T01:17:16;23.65;;;10.25;;
74347;SDS011;62778;50.406;10.008;2023-03-07T01:18:11;23.47;;;10.43;;
74347;SDS011;62778;50.406;10.008;2023-03-07T01:19:08;22.05;;;9.88;;
74347;SDS011;62778;50.406;10.008;2023-03-07T01:20:06;23.30;;;11.65;;
74347;SDS011;62778;50.406;10.008;2023-03-07T01:21:09;18.07;;;8.57;;
74347;SDS011;62778;50.406;10.008;2023-03-07T01:22:05;21.23;;;9.57;;
74347;SDS011;62778;50.406;10.008;2023-03-07T01:23:01;23.67;;;13.88;;
74347;SDS011;62778;50.406;10.008;2023-03-07T01:23:56;20.13;;;8.70;;
74347;SDS011;62778;50.406;10.008;2023-03-07T01:24:52;21.07;;;9.63;;
74347;SDS011;62778;50.406;10.008;2023-03-07T01:25:47;20.33;;;9.00;;
74347;SDS011;62778;50.406;10.008;2023-03-07T01:26:42;20.63;;;9.20;;
74347;SDS011;62778;50.406;10.008;2023-03-07T01:27:38;22.17;;;9.57;;
74347;SDS011;62778;50.406;10.008;2023-03-07T01:28:33;19.30;;;8.18;;
74347;SDS011;62778;50.406;10.008;2023-03-07T01:29:29;20.87;;;10.37;;
74347;SDS011;62778;50.406;10.008;2023-03-07T01:30:24;17.03;;;8.27;;
74347;SDS011;62778;50.406;10.008;2023-03-07T01:31:19;18.90;;;9.30;;
74347;SDS011;62778;50.406;10.008;2023-03-07T01:32:18;20.80;;;9.93;;
74347;SDS011;62778;50.406;10.008;2023-03-07T01:33:13;20.55;;;9.27;;
74347;SDS011;62778;50.406;10.008;2023-03-07T01:34:08;21.47;;;9.43;;
74347;SDS011;62778;50.406;10.008;2023-03-07T01:35:04;21.83;;;8.93;;
74347;SDS011;62778;50.406;10.008;2023-03-07T01:35:59;19.83;;;9.60;;
74347;SDS011;62778;50.406;10.008;2023-03-07T01:36:55;22.00;;;10.57;;
74347;SDS011;62778;50.406;10.008;2023-03-07T01:37:50;20.93;;;10.40;;
74347;SDS011;62778;50.406;10.008;2023-03-07T01:38:47;20.25;;;9.88;;
74347;SDS011;62778;50.406;10.008;2023-03-07T01:39:42;20.58;;;9.93;;
74347;SDS011;62778;50.406;10.008;2023-03-07T01:40:38;21.67;;;10.07;;
74347;SDS011;62778;50.406;10.008;2023-03-07T01:41:34;20.65;;;9.63;;
74347;SDS011;62778;50.406;10.008;2023-03-07T01:42:31;21.05;;;9.90;;
74347;SDS011;62778;50.406;10.008;2023-03-07T01:43:28;21.07;;;9.97;;
74347;SDS011;62778;50.406;10.008;2023-03-07T01:44:26;18.25;;;9.00;;
74347;SDS011;62778;50.406;10.008;2023-03-07T01:46:33;23.30;;;10.90;;
74347;SDS011;62778;50.406;10.008;2023-03-07T01:47:33;18.15;;;9.00;;
74347;SDS011;62778;50.406;10.008;2023-03-07T01:48:28;19.25;;;9.68;;
74347;SDS011;62778;50.406;10.008;2023-03-07T01:49:31;21.50;;;9.87;;
74347;SDS011;62778;50.406;10.008;2023-03-07T01:50:29;19.90;;;9.55;;
74347;SDS011;62778;50.406;10.008;2023-03-07T01:51:24;19.57;;;9.57;;
74347;SDS011;62778;50.406;10.008;2023-03-07T01:52:24;20.20;;;9.43;;
74347;SDS011;62778;50.406;10.008;2023-03-07T01:53:24;18.83;;;9.10;;
74347;SDS011;62778;50.406;10.008;2023-03-07T01:54:19;22.00;;;10.87;;
74347;SDS011;62778;50.406;10.008;2023-03-07T01:55:18;21.42;;;10.38;;
74347;SDS011;62778;50.406;10.008;2023-03-07T01:56:16;19.33;;;9.27;;
74347;SDS011;62778;50.406;10.008;2023-03-07T01:57:11;20.67;;;9.17;;
74347;SDS011;62778;50.406;10.008;2023-03-07T01:58:08;19.00;;;9.88;;
74347;SDS011;62778;50.406;10.008;2023-03-07T01:59:05;20.50;;;8.77;;
74347;SDS011;62778;50.406;10.008;2023-03-07T02:00:02;18.58;;;8.88;;
74347;SDS011;62778;50.406;10.008;2023-03-07T02:01:02;18.77;;;9.05;;
74347;SDS011;62778;50.406;10.008;2023-03-07T02:02:00;18.85;;;8.85;;
74347;SDS011;62778;50.406;10.008;2023-03-07T02:04:10;21.05;;;9.68;;
74347;SDS011;62778;50.406;10.008;2023-03-07T02:05:10;19.42;;;9.25;;
74347;SDS011;62778;50.406;10.008;2023-03-07T02:06:09;17.85;;;8.90;;
74347;SDS011;62778;50.406;10.008;2023-03-07T02:07:05;20.08;;;9.48;;
74347;SDS011;62778;50.406;10.008;2023-03-07T02:08:00;21.33;;;9.93;;
74347;SDS011;62778;50.406;10.008;2023-03-07T02:08:56;19.48;;;8.90;;
74347;SDS011;62778;50.406;10.008;2023-03-07T02:09:52;21.57;;;10.77;;
74347;SDS011;62778;50.406;10.008;2023-03-07T02:10:48;18.90;;;9.93;;
74347;SDS011;62778;50.406;10.008;2023-03-07T02:11:43;18.67;;;8.90;;
74347;SDS011;62778;50.406;10.008;2023-03-07T02:12:40;21.80;;;10.07;;
74347;SDS011;62778;50.406;10.008;2023-03-07T02:13:36;18.75;;;8.70;;
74347;SDS011;62778;50.406;10.008;2023-03-07T02:14:31;19.57;;;10.03;;
74347;SDS011;62778;50.406;10.008;2023-03-07T02:15:26;16.60;;;7.72;;
74347;SDS011;62778;50.406;10.008;2023-03-07T02:16:22;18.03;;;8.70;;
74347;SDS011;62778;50.406;10.008;2023-03-07T02:17:17;18.87;;;9.80;;
74347;SDS011;62778;50.406;10.008;2023-03-07T02:18:14;18.50;;;9.10;;
74347;SDS011;62778;50.406;10.008;2023-03-07T02:19:22;18.37;;;9.43;;
74347;SDS011;62778;50.406;10.008;2023-03-07T02:22:00;17.80;;;7.95;;
74347;SDS011;62778;50.406;10.008;2023-03-07T02:23:06;19.08;;;8.63;;
74347;SDS011;62778;50.406;10.008;2023-03-07T02:25:38;17.95;;;9.25;;
74347;SDS011;62778;50.406;10.008;2023-03-07T02:27:38;16.75;;;7.93;;
74347;SDS011;62778;50.406;10.008;2023-03-07T02:28:34;17.48;;;8.45;;
74347;SDS011;62778;50.406;10.008;2023-03-07T02:29:29;17.47;;;9.00;;
74347;SDS011;62778;50.406;10.008;2023-03-07T02:30:25;17.97;;;8.70;;
74347;SDS011;62778;50.406;10.008;2023-03-07T02:31:20;17.02;;;8.65;;
74347;SDS011;62778;50.406;10.008;2023-03-07T02:32:16;17.30;;;8.40;;
74347;SDS011;62778;50.406;10.008;2023-03-07T02:33:11;19.10;;;9.05;;
74347;SDS011;62778;50.406;10.008;2023-03-07T02:34:20;18.60;;;9.57;;
74347;SDS011;62778;50.406;10.008;2023-03-07T02:35:20;20.00;;;9.70;;
74347;SDS011;62778;50.406;10.008;2023-03-07T02:36:22;19.25;;;9.65;;
74347;SDS011;62778;50.406;10.008;2023-03-07T02:37:20;17.90;;;8.98;;
74347;SDS011;62778;50.406;10.008;2023-03-07T02:38:18;18.13;;;8.53;;
74347;SDS011;62778;50.406;10.008;2023-03-07T02:39:13;18.02;;;8.38;;
74347;SDS011;62778;50.406;10.008;2023-03-07T02:40:09;15.10;;;8.00;;
74347;SDS011;62778;50.406;10.008;2023-03-07T02:41:07;19.00;;;8.93;;
74347;SDS011;62778;50.406;10.008;2023-03-07T02:42:05;16.73;;;8.52;;
74347;SDS011;62778;50.406;10.008;2023-03-07T02:43:02;17.50;;;8.85;;
74347;SDS011;62778;50.406;10.008;2023-03-07T02:44:03;17.30;;;9.32;;
74347;SDS011;62778;50.406;10.008;2023-03-07T02:45:00;16.83;;;8.27;;
74347;SDS011;62778;50.406;10.008;2023-03-07T02:45:56;16.98;;;7.80;;
74347;SDS011;62778;50.406;10.008;2023-03-07T02:46:51;18.00;;;8.00;;
74347;SDS011;62778;50.406;10.008;2023-03-07T02:47:46;16.17;;;8.90;;
74347;SDS011;62778;50.406;10.008;2023-03-07T02:48:42;16.20;;;7.75;;
74347;SDS011;62778;50.406;10.008;2023-03-07T02:49:37;15.63;;;7.77;;
74347;SDS011;62778;50.406;10.008;2023-03-07T02:50:32;16.43;;;8.00;;
74347;SDS011;62778;50.406;10.008;2023-03-07T02:51:29;18.58;;;8.32;;
74347;SDS011;62778;50.406;10.008;2023-03-07T02:52:24;16.20;;;8.13;;
74347;SDS011;62778;50.406;10.008;2023-03-07T02:53:22;15.50;;;7.43;;
74347;SDS011;62778;50.406;10.008;2023-03-07T02:54:18;15.73;;;7.60;;
74347;SDS011;62778;50.406;10.008;2023-03-07T02:55:13;15.30;;;7.70;;
74347;SDS011;62778;50.406;10.008;2023-03-07T02:56:08;13.90;;;7.27;;
74347;SDS011;62778;50.406;10.008;2023-03-07T02:57:04;13.33;;;6.67;;
74347;SDS011;62778;50.406;10.008;2023-03-07T02:57:59;15.05;;;7.35;;
74347;SDS011;62778;50.406;10.008;2023-03-07T02:58:54;15.03;;;7.80;;
74347;SDS011;62778;50.406;10.008;2023-03-07T02:59:50;15.20;;;7.37;;
74347;SDS011;62778;50.406;10.008;2023-03-07T03:00:45;15.27;;;7.03;;
74347;SDS011;62778;50.406;10.008;2023-03-07T03:01:40;13.30;;;7.10;;
74347;SDS011;62778;50.406;10.008;2023-03-07T03:02:36;16.63;;;7.68;;
74347;SDS011;62778;50.406;10.008;2023-03-07T03:03:32;14.43;;;7.05;;
74347;SDS011;62778;50.406;10.008;2023-03-07T03:04:27;13.97;;;6.93;;
74347;SDS011;62778;50.406;10.008;2023-03-07T03:05:23;17.30;;;8.93;;
74347;SDS011;62778;50.406;10.008;2023-03-07T03:06:18;14.40;;;7.18;;
74347;SDS011;62778;50.406;10.008;2023-03-07T03:07:13;15.67;;;7.53;;
74347;SDS011;62778;50.406;10.008;2023-03-07T03:08:09;14.77;;;7.47;;
74347;SDS011;62778;50.406;10.008;2023-03-07T03:09:04;14.93;;;7.50;;
74347;SDS011;62778;50.406;10.008;2023-03-07T03:10:00;15.43;;;8.00;;
74347;SDS011;62778;50.406;10.008;2023-03-07T03:10:55;14.07;;;7.20;;
74347;SDS011;62778;50.406;10.008;2023-03-07T03:11:50;15.50;;;7.57;;
74347;SDS011;62778;50.406;10.008;2023-03-07T03:12:46;14.15;;;7.28;;
74347;SDS011;62778;50.406;10.008;2023-03-07T03:13:41;13.67;;;7.67;;
74347;SDS011;62778;50.406;10.008;2023-03-07T03:14:36;14.83;;;7.57;;
74347;SDS011;62778;50.406;10.008;2023-03-07T03:15:32;14.43;;;7.30;;
74347;SDS011;62778;50.406;10.008;2023-03-07T03:16:27;13.52;;;7.20;;
74347;SDS011;62778;50.406;10.008;2023-03-07T03:17:22;12.43;;;6.50;;
74347;SDS011;62778;50.406;10.008;2023-03-07T03:18:18;13.83;;;6.33;;
74347;SDS011;62778;50.406;10.008;2023-03-07T03:19:13;13.85;;;6.88;;
74347;SDS011;62778;50.406;10.008;2023-03-07T03:20:09;13.57;;;6.63;;
74347;SDS011;62778;50.406;10.008;2023-03-07T03:21:07;13.15;;;6.20;;
74347;SDS011;62778;50.406;10.008;2023-03-07T03:22:03;13.35;;;7.38;;
74347;SDS011;62778;50.406;10.008;2023-03-07T03:22:59;13.07;;;6.60;;
74347;SDS011;62778;50.406;10.008;2023-03-07T03:23:54;13.17;;;6.70;;
74347;SDS011;62778;50.406;10.008;2023-03-07T03:24:49;12.53;;;6.53;;
74347;SDS011;62778;50.406;10.008;2023-03-07T03:25:45;14.23;;;7.28;;
74347;SDS011;62778;50.406;10.008;2023-03-07T03:26:40;12.67;;;6.43;;
74347;SDS011;62778;50.406;10.008;2023-03-07T03:27:38;12.87;;;7.03;;
74347;SDS011;62778;50.406;10.008;2023-03-07T03:28:34;13.55;;;6.72;;
74347;SDS011;62778;50.406;10.008;2023-03-07T03:29:30;12.02;;;6.13;;
74347;SDS011;62778;50.406;10.008;2023-03-07T03:30:25;12.53;;;7.20;;
74347;SDS011;62778;50.406;10.008;2023-03-07T03:31:22;13.70;;;6.97;;
74347;SDS011;62778;50.406;10.008;2023-03-07T03:32:18;12.85;;;6.55;;
74347;SDS011;62778;50.406;10.008;2023-03-07T03:33:14;12.50;;;6.37;;
74347;SDS011;62778;50.406;10.008;2023-03-07T03:34:09;11.80;;;5.90;;
74347;SDS011;62778;50.406;10.008;2023-03-07T03:35:04;13.07;;;7.07;;
74347;SDS011;62778;50.406;10.008;2023-03-07T03:36:04;11.97;;;6.60;;
74347;SDS011;62778;50.406;10.008;2023-03-07T03:37:04;11.52;;;5.97;;
74347;SDS011;62778;50.406;10.008;2023-03-07T03:37:59;12.00;;;6.50;;
74347;SDS011;62778;50.406;10.008;2023-03-07T03:38:55;12.47;;;6.13;;
74347;SDS011;62778;50.406;10.008;2023-03-07T03:39:52;11.68;;;5.65;;
74347;SDS011;62778;50.406;10.008;2023-03-07T03:40:48;11.98;;;6.05;;
74347;SDS011;62778;50.406;10.008;2023-03-07T03:41:43;11.83;;;6.07;;
74347;SDS011;62778;50.406;10.008;2023-03-07T03:42:39;11.63;;;5.87;;
74347;SDS011;62778;50.406;10.008;2023-03-07T03:43:35;10.55;;;5.22;;
74347;SDS011;62778;50.406;10.008;2023-03-07T03:44:31;11.13;;;5.80;;
74347;SDS011;62778;50.406;10.008;2023-03-07T03:45:26;10.50;;;5.30;;
74347;SDS011;62778;50.406;10.008;2023-03-07T03:46:22;11.10;;;5.68;;
74347;SDS011;62778;50.406;10.008;2023-03-07T03:47:17;10.50;;;5.20;;
74347;SDS011;62778;50.406;10.008;2023-03-07T03:48:13;10.53;;;5.87;;
74347;SDS011;62778;50.406;10.008;2023-03-07T03:49:10;12.15;;;5.20;;
74347;SDS011;62778;50.406;10.008;2023-03-07T03:50:07;11.77;;;5.55;;
74347;SDS011;62778;50.406;10.008;2023-03-07T03:51:04;13.13;;;6.90;;
74347;SDS011;62778;50.406;10.008;2023-03-07T03:52:01;10.77;;;5.40;;
74347;SDS011;62778;50.406;10.008;2023-03-07T03:52:58;11.25;;;5.90;;
74347;SDS011;62778;50.406;10.008;2023-03-07T03:53:54;11.82;;;6.15;;
74347;SDS011;62778;50.406;10.008;2023-03-07T03:54:51;11.00;;;5.50;;
74347;SDS011;62778;50.406;10.008;2023-03-07T03:55:46;11.73;;;5.30;;
74347;SDS011;62778;50.406;10.008;2023-03-07T03:56:42;11.50;;;5.97;;
74347;SDS011;62778;50.406;10.008;2023-03-07T03:57:37;11.13;;;5.80;;
74347;SDS011;62778;50.406;10.008;2023-03-07T03:58:33;11.73;;;5.78;;
74347;SDS011;62778;50.406;10.008;2023-03-07T03:59:28;10.57;;;5.27;;
74347;SDS011;62778;50.406;10.008;2023-03-07T04:00:24;11.80;;;5.65;;
74347;SDS011;62778;50.406;10.008;2023-03-07T04:01:20;10.67;;;5.53;;
74347;SDS011;62778;50.406;10.008;2023-03-07T04:02:16;11.18;;;5.40;;
74347;SDS011;62778;50.406;10.008;2023-03-07T04:03:12;12.10;;;5.33;;
74347;SDS011;62778;50.406;10.008;2023-03-07T04:04:07;10.80;;;5.77;;
74347;SDS011;62778;50.406;10.008;2023-03-07T04:05:02;10.27;;;5.30;;
74347;SDS011;62778;50.406;10.008;2023-03-07T04:06:00;10.50;;;5.30;;
74347;SDS011;62778;50.406;10.008;2023-03-07T04:06:56;10.40;;;5.47;;
74347;SDS011;62778;50.406;10.008;2023-03-07T04:07:51;9.73;;;4.77;;
74347;SDS011;62778;50.406;10.008;2023-03-07T04:08:46;9.57;;;4.87;;
74347;SDS011;62778;50.406;10.008;2023-03-07T04:09:42;10.87;;;5.33;;
74347;SDS011;62778;50.406;10.008;2023-03-07T04:10:37;10.90;;;5.77;;
74347;SDS011;62778;50.406;10.008;2023-03-07T04:11:32;10.27;;;5.33;;
74347;SDS011;62778;50.406;10.008;2023-03-07T04:12:28;11.40;;;5.57;;
74347;SDS011;62778;50.406;10.008;2023-03-07T04:13:23;9.80;;;5.03;;
74347;SDS011;62778;50.406;10.008;2023-03-07T04:14:19;10.60;;;5.30;;
74347;SDS011;62778;50.406;10.008;2023-03-07T04:15:14;11.27;;;6.00;;
74347;SDS011;62778;50.406;10.008;2023-03-07T04:16:10;10.10;;;5.30;;
74347;SDS011;62778;50.406;10.008;2023-03-07T04:17:06;10.50;;;5.20;;
74347;SDS011;62778;50.406;10.008;2023-03-07T04:18:01;9.70;;;4.83;;
74347;SDS011;62778;50.406;10.008;2023-03-07T04:18:56;10.07;;;4.60;;
74347;SDS011;62778;50.406;10.008;2023-03-07T04:19:52;11.25;;;5.47;;
74347;SDS011;62778;50.406;10.008;2023-03-07T04:20:47;11.10;;;5.13;;
74347;SDS011;62778;50.406;10.008;2023-03-07T04:21:43;10.02;;;5.28;;
74347;SDS011;62778;50.406;10.008;2023-03-07T04:22:39;9.63;;;5.03;;
74347;SDS011;62778;50.406;10.008;2023-03-07T04:23:34;9.93;;;5.10;;
74347;SDS011;62778;50.406;10.008;2023-03-07T04:24:30;10.83;;;5.00;;
74347;SDS011;62778;50.406;10.008;2023-03-07T04:25:25;10.43;;;5.20;;
74347;SDS011;62778;50.406;10.008;2023-03-07T04:26:20;10.07;;;5.03;;
74347;SDS011;62778;50.406;10.008;2023-03-07T04:27:16;9.30;;;4.70;;
74347;SDS011;62778;50.406;10.008;2023-03-07T04:28:11;9.18;;;4.72;;
74347;SDS011;62778;50.406;10.008;2023-03-07T04:29:07;10.20;;;4.83;;
74347;SDS011;62778;50.406;10.008;2023-03-07T04:30:03;9.65;;;5.00;;
74347;SDS011;62778;50.406;10.008;2023-03-07T04:30:59;9.20;;;4.57;;
74347;SDS011;62778;50.406;10.008;2023-03-07T04:31:55;9.17;;;4.37;;
74347;SDS011;62778;50.406;10.008;2023-03-07T04:32:50;8.57;;;4.43;;
74347;SDS011;62778;50.406;10.008;2023-03-07T04:33:46;9.00;;;4.32;;
74347;SDS011;62778;50.406;10.008;2023-03-07T04:34:42;9.43;;;5.03;;
74347;SDS011;62778;50.406;10.008;2023-03-07T04:35:38;9.87;;;4.77;;
74347;SDS011;62778;50.406;10.008;2023-03-07T04:36:33;9.48;;;4.78;;
74347;SDS011;62778;50.406;10.008;2023-03-07T04:37:29;9.97;;;5.30;;
74347;SDS011;62778;50.406;10.008;2023-03-07T04:38:25;9.73;;;4.75;;
74347;SDS011;62778;50.406;10.008;2023-03-07T04:39:20;8.97;;;4.53;;
74347;SDS011;62778;50.406;10.008;2023-03-07T04:40:16;10.60;;;5.10;;
74347;SDS011;62778;50.406;10.008;2023-03-07T04:41:12;9.70;;;4.53;;
74347;SDS011;62778;50.406;10.008;2023-03-07T04:42:11;9.77;;;4.63;;
74347;SDS011;62778;50.406;10.008;2023-03-07T04:43:07;9.77;;;4.57;;
74347;SDS011;62778;50.406;10.008;2023-03-07T04:44:02;9.37;;;4.23;;
74347;SDS011;62778;50.406;10.008;2023-03-07T04:44:57;9.13;;;4.73;;
74347;SDS011;62778;50.406;10.008;2023-03-07T04:45:53;8.57;;;4.33;;
74347;SDS011;62778;50.406;10.008;2023-03-07T04:46:48;8.57;;;4.60;;
74347;SDS011;62778;50.406;10.008;2023-03-07T04:47:43;9.27;;;4.60;;
74347;SDS011;62778;50.406;10.008;2023-03-07T04:48:39;8.73;;;3.67;;
74347;SDS011;62778;50.406;10.008;2023-03-07T04:49:34;8.40;;;4.13;;
74347;SDS011;62778;50.406;10.008;2023-03-07T04:50:30;8.90;;;4.47;;
74347;SDS011;62778;50.406;10.008;2023-03-07T04:51:25;8.60;;;4.00;;
74347;SDS011;62778;50.406;10.008;2023-03-07T04:52:20;7.57;;;3.40;;
74347;SDS011;62778;50.406;10.008;2023-03-07T04:53:16;8.27;;;4.10;;
74347;SDS011;62778;50.406;10.008;2023-03-07T04:54:12;8.32;;;4.20;;
74347;SDS011;62778;50.406;10.008;2023-03-07T04:55:08;8.90;;;4.37;;
74347;SDS011;62778;50.406;10.008;2023-03-07T04:56:04;9.73;;;4.75;;
74347;SDS011;62778;50.406;10.008;2023-03-07T04:57:00;8.85;;;4.15;;
74347;SDS011;62778;50.406;10.008;2023-03-07T04:57:56;8.03;;;3.70;;
74347;SDS011;62778;50.406;10.008;2023-03-07T04:58:52;8.63;;;3.78;;
74347;SDS011;62778;50.406;10.008;2023-03-07T04:59:47;8.27;;;3.90;;
74347;SDS011;62778;50.406;10.008;2023-03-07T05:00:43;8.23;;;3.90;;
74347;SDS011;62778;50.406;10.008;2023-03-07T05:01:39;7.78;;;3.67;;
74347;SDS011;62778;50.406;10.008;2023-03-07T05:02:35;9.15;;;4.00;;
74347;SDS011;62778;50.406;10.008;2023-03-07T05:03:31;8.53;;;3.77;;
74347;SDS011;62778;50.406;10.008;2023-03-07T05:04:26;8.30;;;3.87;;
74347;SDS011;62778;50.406;10.008;2023-03-07T05:05:21;8.97;;;4.50;;
74347;SDS011;62778;50.406;10.008;2023-03-07T05:06:17;8.63;;;4.40;;
74347;SDS011;62778;50.406;10.008;2023-03-07T05:07:12;8.60;;;3.97;;
74347;SDS011;62778;50.406;10.008;2023-03-07T05:08:07;8.20;;;4.00;;
74347;SDS011;62778;50.406;10.008;2023-03-07T05:09:03;8.83;;;4.10;;
74347;SDS011;62778;50.406;10.008;2023-03-07T05:09:58;8.32;;;4.07;;
74347;SDS011;62778;50.406;10.008;2023-03-07T05:10:54;8.87;;;4.40;;
74347;SDS011;62778;50.406;10.008;2023-03-07T05:11:49;8.67;;;4.07;;
74347;SDS011;62778;50.406;10.008;2023-03-07T05:12:44;9.07;;;4.43;;
74347;SDS011;62778;50.406;10.008;2023-03-07T05:13:40;8.97;;;4.07;;
74347;SDS011;62778;50.406;10.008;2023-03-07T05:14:35;8.75;;;4.40;;
74347;SDS011;62778;50.406;10.008;2023-03-07T05:15:30;9.33;;;4.30;;
74347;SDS011;62778;50.406;10.008;2023-03-07T05:16:26;8.80;;;4.27;;
74347;SDS011;62778;50.406;10.008;2023-03-07T05:17:21;8.93;;;4.87;;
74347;SDS011;62778;50.406;10.008;2023-03-07T05:18:16;8.77;;;4.10;;
74347;SDS011;62778;50.406;10.008;2023-03-07T05:19:12;9.05;;;4.28;;
74347;SDS011;62778;50.406;10.008;2023-03-07T05:20:07;9.50;;;4.33;;
74347;SDS011;62778;50.406;10.008;2023-03-07T05:21:07;7.97;;;3.88;;
74347;SDS011;62778;50.406;10.008;2023-03-07T05:22:02;9.73;;;4.60;;
74347;SDS011;62778;50.406;10.008;2023-03-07T05:22:58;8.82;;;4.78;;
74347;SDS011;62778;50.406;10.008;2023-03-07T05:23:53;8.47;;;4.53;;
74347;SDS011;62778;50.406;10.008;2023-03-07T05:24:48;9.10;;;4.60;;
74347;SDS011;62778;50.406;10.008;2023-03-07T05:25:44;8.23;;;4.20;;
74347;SDS011;62778;50.406;10.008;2023-03-07T05:26:41;8.68;;;3.90;;
74347;SDS011;62778;50.406;10.008;2023-03-07T05:27:36;8.40;;;4.50;;
74347;SDS011;62778;50.406;10.008;2023-03-07T05:28:31;8.03;;;4.10;;
74347;SDS011;62778;50.406;10.008;2023-03-07T05:29:28;9.50;;;4.65;;
74347;SDS011;62778;50.406;10.008;2023-03-07T05:30:23;7.90;;;4.10;;
74347;SDS011;62778;50.406;10.008;2023-03-07T05:31:18;8.50;;;4.07;;
74347;SDS011;62778;50.406;10.008;2023-03-07T05:32:14;9.02;;;4.72;;
74347;SDS011;62778;50.406;10.008;2023-03-07T05:33:09;8.33;;;3.80;;
74347;SDS011;62778;50.406;10.008;2023-03-07T05:34:04;8.77;;;4.30;;
74347;SDS011;62778;50.406;10.008;2023-03-07T05:35:00;8.33;;;4.10;;